CheckWX is a tool to help pilots better visualize weather data.  It is not intended as a substitute for an official pre-flight weather briefing.

21:12:22 UTC

KSME TAF
Lake Cumberland Regional Airport
Somerset, Kentucky, USA
KSME 191720Z 1918/2018 14007KT P6SM SCT050 BKN060 BKN070 FM200200 VRB02KT P6SM FEW050

Sep-19@
18:00 UTC

Sep-19 @ 18:00 UTC

Sep-20@
02:00 UTC

Sep-20 @ 02:00 UTC

KSME 191720Z 1918/2018 14007KT P6SM SCT050 BKN060 BKN070
Wind
  • 140° at 7 KTS
Cloud Levels
  • Scattered at 5,000' AGL
  • Broken at 6,000' AGL
  • Broken at 7,000' AGL

Sep-20@
02:00 UTC

Sep-20 @ 02:00 UTC

Sep-20@
18:00 UTC

Sep-20 @ 18:00 UTC

FM200200 VRB02KT P6SM FEW050

From

From Standard forecast or significant change

Wind
  • Variable at 2 KTS
Cloud Levels
  • Few at 5,000' AGL